Time;durP1;ratioP1;P1;durP2;ratioP2;P2;SDS_P1;SDS_P2;PMS_P1;PMS_P2;Temp;Humidity;BMP_temperature;BMP_pressure;BME280_temperature;BME280_humidity;BME280_pressure;Samples;Min_cycle;Max_cycle;Signal;HPM_P1;HPM_P2
2023/11/22 00:01:06;;;;;;;4.70;2.72;;;2.50;99.90;;;;;;5036003;28;20716;-60
2023/11/22 00:03:32;;;;;;;4.45;2.42;;;2.50;99.90;;;;;;5035294;28;20052;-61
2023/11/22 00:05:58;;;;;;;5.70;2.85;;;2.50;99.90;;;;;;5036685;28;20037;-61
2023/11/22 00:08:23;;;;;;;4.60;2.53;;;2.50;99.90;;;;;;5035264;28;20069;-62
2023/11/22 00:10:49;;;;;;;3.75;2.58;;;2.60;99.90;;;;;;5040604;28;20069;-62
2023/11/22 00:13:15;;;;;;;5.80;2.90;;;2.60;99.90;;;;;;5036233;28;20044;-56
2023/11/22 00:15:41;;;;;;;7.18;2.63;;;2.60;99.90;;;;;;5038078;28;20045;-61
2023/11/22 00:18:06;;;;;;;5.90;2.72;;;2.60;99.90;;;;;;5028499;28;20041;-60
2023/11/22 00:20:33;;;;;;;4.78;2.80;;;2.60;99.90;;;;;;5025203;28;20041;-60
2023/11/22 00:23:08;;;;;;;4.88;2.70;;;2.50;99.90;;;;;;5022589;28;20116;-61
2023/11/22 00:25:34;;;;;;;10.15;3.67;;;2.60;99.90;;;;;;5020748;28;20053;-62
2023/11/22 00:27:59;;;;;;;4.43;2.83;;;2.60;99.90;;;;;;5024780;28;20076;-60
2023/11/22 00:30:25;;;;;;;7.25;3.28;;;2.50;99.90;;;;;;5025734;28;20496;-60
2023/11/22 00:32:51;;;;;;;6.25;3.17;;;2.50;99.90;;;;;;5018003;28;20994;-62
2023/11/22 00:35:17;;;;;;;7.30;3.35;;;2.50;99.90;;;;;;5026073;28;20045;-60
2023/11/22 00:37:42;;;;;;;5.47;3.20;;;2.50;99.90;;;;;;5022821;28;20068;-58
2023/11/22 00:40:11;;;;;;;4.72;3.10;;;2.50;99.90;;;;;;5025485;28;20041;-61
2023/11/22 00:42:39;;;;;;;6.20;3.30;;;2.50;99.90;;;;;;5020945;28;20070;-62
2023/11/22 00:45:05;;;;;;;7.07;3.90;;;2.50;99.90;;;;;;5025578;28;20037;-62
2023/11/22 00:47:32;;;;;;;5.95;3.20;;;2.50;99.90;;;;;;5025850;28;20128;-58
2023/11/22 00:49:58;;;;;;;5.50;3.45;;;2.50;99.90;;;;;;5020479;28;20048;-62
2023/11/22 00:52:24;;;;;;;8.57;3.97;;;2.50;99.90;;;;;;5021511;28;20080;-62
2023/11/22 00:54:49;;;;;;;8.45;3.83;;;2.40;99.90;;;;;;5024558;28;20072;-60
2023/11/22 00:57:15;;;;;;;7.78;3.95;;;2.40;99.90;;;;;;5023074;28;20543;-60
2023/11/22 00:59:41;;;;;;;7.93;3.60;;;2.40;99.90;;;;;;5024723;28;20448;-61
2023/11/22 01:02:08;;;;;;;5.47;2.90;;;2.40;99.90;;;;;;5019951;28;20485;-60
2023/11/22 01:04:36;;;;;;;7.22;3.72;;;2.40;99.90;;;;;;5024140;28;20052;-62
2023/11/22 01:07:04;;;;;;;10.23;4.25;;;2.40;99.90;;;;;;5022554;28;20053;-61
2023/11/22 01:09:31;;;;;;;11.20;4.57;;;2.50;99.90;;;;;;5018070;28;20133;-62
2023/11/22 01:11:57;;;;;;;6.10;3.75;;;2.40;99.90;;;;;;5024301;28;20052;-61
2023/11/22 01:14:23;;;;;;;8.27;4.22;;;2.40;99.90;;;;;;5022898;28;20037;-58
2023/11/22 01:16:49;;;;;;;7.05;4.20;;;2.40;99.90;;;;;;5023222;28;20096;-61
2023/11/22 01:19:15;;;;;;;6.57;3.97;;;2.40;99.90;;;;;;5027320;28;20037;-62
2023/11/22 01:21:41;;;;;;;7.93;4.70;;;2.40;99.90;;;;;;5026734;28;20037;-60
2023/11/22 01:24:07;;;;;;;8.48;3.92;;;2.30;99.90;;;;;;5024189;28;20635;-62
2023/11/22 01:26:33;;;;;;;8.05;3.83;;;2.20;99.90;;;;;;5023005;28;20048;-58
2023/11/22 01:29:00;;;;;;;7.78;3.88;;;2.20;99.90;;;;;;5021278;28;20037;-58
2023/11/22 01:31:27;;;;;;;8.32;4.43;;;2.10;99.90;;;;;;5020526;28;20034;-62
2023/11/22 01:33:53;;;;;;;7.72;4.30;;;2.00;99.90;;;;;;5021134;28;20455;-61
2023/11/22 01:36:19;;;;;;;9.05;4.80;;;2.10;99.90;;;;;;5024422;28;20072;-62
2023/11/22 01:38:46;;;;;;;8.80;4.95;;;2.10;99.90;;;;;;5020949;28;20046;-61
2023/11/22 01:41:15;;;;;;;8.23;4.35;;;2.20;99.90;;;;;;5020755;28;20042;-61
2023/11/22 01:43:41;;;;;;;9.30;4.90;;;2.20;99.90;;;;;;5023909;28;20077;-59
2023/11/22 01:46:08;;;;;;;12.52;4.93;;;2.20;99.90;;;;;;5015040;28;20076;-61
2023/11/22 01:48:36;;;;;;;11.10;4.75;;;2.10;99.90;;;;;;5025175;28;20042;-59
2023/11/22 01:51:03;;;;;;;9.18;4.93;;;2.00;99.90;;;;;;5020803;28;20081;-57
2023/11/22 01:53:29;;;;;;;8.43;4.95;;;1.90;99.90;;;;;;5024625;28;20537;-60
2023/11/22 01:55:56;;;;;;;9.68;5.18;;;1.90;99.90;;;;;;5018151;28;20298;-59
2023/11/22 01:58:23;;;;;;;9.25;4.50;;;1.90;99.90;;;;;;5021175;28;20101;-62
2023/11/22 02:00:52;;;;;;;8.35;4.82;;;1.80;99.90;;;;;;5020473;28;20788;-62
2023/11/22 02:03:18;;;;;;;7.97;4.50;;;1.80;99.90;;;;;;5041628;28;20151;-62
2023/11/22 02:05:45;;;;;;;11.18;4.63;;;1.80;99.90;;;;;;5045156;28;20132;-62
2023/11/22 02:08:12;;;;;;;9.80;4.32;;;1.70;99.90;;;;;;5042714;28;20499;-59
2023/11/22 02:10:38;;;;;;;11.85;4.60;;;1.60;99.90;;;;;;5044068;28;20043;-61
2023/11/22 02:13:06;;;;;;;7.38;4.15;;;1.50;99.90;;;;;;5043777;28;20037;-61
2023/11/22 02:15:32;;;;;;;7.72;4.15;;;1.50;99.90;;;;;;5037750;28;20044;-60
2023/11/22 02:17:57;;;;;;;9.90;5.50;;;1.30;99.90;;;;;;5040140;28;20044;-61
2023/11/22 02:20:23;;;;;;;8.77;5.05;;;1.30;99.90;;;;;;5040833;28;20041;-60
2023/11/22 02:22:50;;;;;;;9.30;4.78;;;1.30;99.90;;;;;;5044593;28;20061;-59
2023/11/22 02:25:15;;;;;;;8.98;4.90;;;1.20;99.90;;;;;;5038985;28;20102;-61
2023/11/22 02:27:42;;;;;;;9.27;4.90;;;1.20;99.90;;;;;;5039201;28;20037;-61
2023/11/22 02:30:08;;;;;;;8.77;4.50;;;1.20;99.90;;;;;;5044611;28;20048;-59
2023/11/22 02:32:34;;;;;;;8.52;4.00;;;1.20;99.90;;;;;;5036279;28;20060;-60
2023/11/22 02:35:00;;;;;;;9.00;4.85;;;1.10;99.90;;;;;;5036535;28;20071;-60
2023/11/22 02:37:26;;;;;;;15.85;4.68;;;1.10;99.90;;;;;;5038294;28;20045;-60
2023/11/22 02:40:04;;;;;;;8.90;4.35;;;1.10;99.90;;;;;;5042807;28;20052;-59
2023/11/22 02:42:30;;;;;;;7.57;4.30;;;1.00;99.90;;;;;;5043071;28;20051;-61
2023/11/22 02:44:56;;;;;;;8.93;4.15;;;1.00;99.90;;;;;;5044275;28;20040;-60
2023/11/22 02:47:22;;;;;;;11.25;3.80;;;1.00;99.90;;;;;;5042868;28;20445;-60
2023/11/22 02:49:48;;;;;;;12.13;4.43;;;1.00;99.90;;;;;;5042677;28;20041;-59
2023/11/22 02:52:14;;;;;;;10.43;4.55;;;0.90;99.90;;;;;;5043510;28;20064;-60
2023/11/22 02:54:43;;;;;;;11.48;4.13;;;0.90;99.90;;;;;;5041907;28;20661;-61
2023/11/22 02:57:09;;;;;;;7.50;4.18;;;1.00;99.90;;;;;;5044201;28;20037;-57
2023/11/22 02:59:35;;;;;;;10.45;4.60;;;0.80;99.90;;;;;;5042747;28;20486;-56
2023/11/22 03:02:01;;;;;;;9.55;4.25;;;0.80;99.90;;;;;;5042710;28;20053;-61
2023/11/22 03:04:28;;;;;;;6.57;3.58;;;0.80;99.90;;;;;;5043677;28;20071;-60
2023/11/22 03:06:55;;;;;;;9.75;3.63;;;0.90;99.90;;;;;;5044202;28;20045;-61
2023/11/22 03:09:22;;;;;;;8.23;3.88;;;0.80;99.90;;;;;;5041928;28;20037;-58
2023/11/22 03:11:48;;;;;;;8.00;3.90;;;0.80;99.90;;;;;;5033440;28;20572;-60
2023/11/22 03:14:14;;;;;;;9.48;3.95;;;0.80;99.90;;;;;;5043026;28;20044;-59
2023/11/22 03:16:40;;;;;;;7.25;3.95;;;0.80;99.90;;;;;;5044170;28;20767;-58
2023/11/22 03:19:06;;;;;;;6.75;3.53;;;0.80;99.90;;;;;;5044206;28;20083;-61
2023/11/22 03:21:32;;;;;;;8.00;4.60;;;0.70;99.90;;;;;;5035939;28;20099;-59
2023/11/22 03:23:59;;;;;;;5.90;3.42;;;0.70;99.90;;;;;;5043799;28;20029;-59
2023/11/22 03:26:25;;;;;;;7.13;3.85;;;0.70;99.90;;;;;;5042042;28;20067;-60
2023/11/22 03:28:50;;;;;;;7.50;3.85;;;0.60;99.90;;;;;;5041406;28;20040;-61
2023/11/22 03:31:16;;;;;;;7.10;3.47;;;0.70;99.90;;;;;;5035012;28;20057;-62
2023/11/22 03:33:42;;;;;;;7.50;3.92;;;0.70;99.90;;;;;;5036632;28;20619;-59
2023/11/22 03:36:08;;;;;;;7.22;4.13;;;0.60;99.90;;;;;;5040406;28;20048;-60
2023/11/22 03:38:33;;;;;;;8.45;4.00;;;0.60;99.90;;;;;;5042547;28;20068;-55
2023/11/22 03:40:59;;;;;;;9.52;3.85;;;0.60;99.90;;;;;;5044232;28;20449;-60
2023/11/22 03:43:24;;;;;;;7.63;3.53;;;0.60;99.90;;;;;;5043367;28;20688;-61
2023/11/22 03:45:50;;;;;;;11.98;3.90;;;0.60;99.90;;;;;;5038640;28;20033;-60
2023/11/22 03:48:15;;;;;;;6.30;3.05;;;0.50;99.90;;;;;;5042508;28;20072;-60
2023/11/22 03:50:41;;;;;;;5.30;3.22;;;0.60;99.90;;;;;;5038422;28;20100;-59
2023/11/22 03:53:07;;;;;;;6.35;3.60;;;0.50;99.90;;;;;;5044859;28;20120;-60
2023/11/22 03:55:32;;;;;;;6.75;3.25;;;0.50;99.90;;;;;;5047460;28;20133;-59
2023/11/22 03:57:58;;;;;;;7.68;3.03;;;0.50;99.90;;;;;;5041792;28;20055;-60
2023/11/22 04:00:24;;;;;;;5.97;3.20;;;0.40;99.90;;;;;;5045277;28;20045;-60
2023/11/22 04:02:49;;;;;;;5.22;3.25;;;0.40;99.90;;;;;;5046771;28;20764;-61
2023/11/22 04:05:15;;;;;;;7.15;3.33;;;0.40;99.90;;;;;;5044329;28;20156;-60
2023/11/22 04:07:41;;;;;;;7.40;3.85;;;0.40;99.90;;;;;;5043140;28;20120;-60
2023/11/22 04:10:07;;;;;;;5.32;3.22;;;0.40;99.90;;;;;;5045245;28;20041;-62
2023/11/22 04:12:32;;;;;;;10.32;3.83;;;0.40;99.90;;;;;;5046556;28;20040;-61
2023/11/22 04:14:58;;;;;;;6.72;4.10;;;0.30;99.90;;;;;;5041105;28;20072;-60
2023/11/22 04:17:24;;;;;;;5.85;3.42;;;0.30;99.90;;;;;;5046375;28;20052;-60
2023/11/22 04:19:50;;;;;;;6.85;2.95;;;0.30;99.90;;;;;;5046168;28;20065;-60
2023/11/22 04:22:16;;;;;;;4.35;2.70;;;0.40;99.90;;;;;;5039452;28;20457;-61
2023/11/22 04:24:42;;;;;;;5.65;2.67;;;0.30;99.90;;;;;;5045459;28;20064;-61
2023/11/22 04:27:08;;;;;;;5.50;3.03;;;0.20;99.90;;;;;;5044240;28;20048;-60
2023/11/22 04:29:33;;;;;;;4.20;2.90;;;0.20;99.90;;;;;;5044237;28;20044;-61
2023/11/22 04:31:59;;;;;;;7.43;3.80;;;0.20;99.90;;;;;;5024935;28;20033;-60
2023/11/22 04:34:25;;;;;;;8.02;3.10;;;0.10;99.90;;;;;;5025297;28;20052;-60
2023/11/22 04:36:50;;;;;;;6.28;2.85;;;0.20;99.90;;;;;;5025465;28;20124;-62
2023/11/22 04:39:17;;;;;;;5.53;2.95;;;0.10;99.90;;;;;;5023808;28;20037;-61
2023/11/22 04:41:42;;;;;;;5.63;3.47;;;0.20;99.90;;;;;;5024135;28;21208;-61
2023/11/22 04:44:08;;;;;;;5.45;2.92;;;0.10;99.90;;;;;;5027738;28;20048;-61
2023/11/22 04:46:34;;;;;;;8.43;3.40;;;0.10;99.90;;;;;;5020174;28;20053;-59
2023/11/22 04:48:59;;;;;;;5.50;2.80;;;0.10;99.90;;;;;;5024340;28;20038;-59
2023/11/22 04:51:25;;;;;;;6.07;3.03;;;0.10;99.90;;;;;;5026845;28;20102;-58
2023/11/22 04:53:51;;;;;;;7.00;3.17;;;0.00;99.90;;;;;;5025476;28;20029;-61
2023/11/22 04:56:17;;;;;;;6.07;2.63;;;0.00;99.90;;;;;;5026655;28;20756;-59
2023/11/22 04:58:42;;;;;;;5.05;3.10;;;-0.10;99.90;;;;;;5023999;28;20053;-56
2023/11/22 05:01:09;;;;;;;4.70;2.75;;;-0.10;99.90;;;;;;5025108;28;20118;-59
2023/11/22 05:03:35;;;;;;;9.18;3.45;;;-0.10;99.90;;;;;;5021668;28;20049;-60
2023/11/22 05:06:01;;;;;;;6.63;3.17;;;-0.10;99.90;;;;;;5025160;28;20566;-60
2023/11/22 05:08:27;;;;;;;5.85;3.15;;;-0.20;99.90;;;;;;5025229;28;20073;-60
2023/11/22 05:10:52;;;;;;;8.77;3.20;;;-0.20;99.90;;;;;;5025054;28;20052;-55
2023/11/22 05:13:18;;;;;;;9.00;3.35;;;-0.20;99.90;;;;;;5025231;28;20033;-59
2023/11/22 05:15:44;;;;;;;5.97;2.60;;;-0.20;99.90;;;;;;5018728;28;20049;-58
2023/11/22 05:18:09;;;;;;;7.30;3.08;;;-0.30;99.90;;;;;;5019029;28;20045;-59
2023/11/22 05:20:35;;;;;;;5.75;3.42;;;-0.30;99.90;;;;;;5023314;28;20038;-60
2023/11/22 05:23:01;;;;;;;5.30;2.88;;;-0.30;99.90;;;;;;5025706;28;20053;-60
2023/11/22 05:25:27;;;;;;;6.03;2.72;;;-0.30;99.90;;;;;;5024624;28;20604;-60
2023/11/22 05:27:52;;;;;;;6.00;3.20;;;-0.30;99.90;;;;;;5024816;28;20170;-60
2023/11/22 05:30:18;;;;;;;6.88;3.17;;;-0.40;99.90;;;;;;5024016;28;20033;-59
2023/11/22 05:32:43;;;;;;;7.25;3.17;;;-0.40;99.90;;;;;;5019425;28;20067;-60
2023/11/22 05:35:09;;;;;;;5.50;3.25;;;-0.40;99.90;;;;;;5018772;28;20025;-59
2023/11/22 05:37:36;;;;;;;9.38;2.88;;;-0.40;99.90;;;;;;5024841;28;20539;-60
2023/11/22 05:40:03;;;;;;;6.70;3.20;;;-0.50;99.90;;;;;;5026029;28;20087;-60
2023/11/22 05:42:29;;;;;;;6.90;3.72;;;-0.50;99.90;;;;;;5025015;28;20056;-61
2023/11/22 05:44:54;;;;;;;5.45;2.80;;;-0.50;99.90;;;;;;5021473;28;20041;-60
2023/11/22 05:47:20;;;;;;;4.43;2.83;;;-0.50;99.90;;;;;;5023834;28;20410;-60
2023/11/22 05:49:45;;;;;;;7.10;3.13;;;-0.50;99.90;;;;;;5024571;28;20045;-59
2023/11/22 05:52:11;;;;;;;8.60;3.45;;;-0.50;99.90;;;;;;5025781;28;20045;-60
2023/11/22 05:54:37;;;;;;;4.65;2.80;;;-0.60;99.90;;;;;;5024220;28;20041;-60
2023/11/22 05:57:02;;;;;;;7.25;2.88;;;-0.60;99.90;;;;;;5022061;28;20042;-59
2023/11/22 05:59:28;;;;;;;7.65;3.28;;;-0.70;99.90;;;;;;5023650;28;20045;-60
2023/11/22 06:01:53;;;;;;;5.90;3.30;;;-0.70;99.90;;;;;;5023856;28;20037;-60
2023/11/22 06:04:19;;;;;;;6.32;2.63;;;-0.70;99.90;;;;;;5024423;28;20514;-60
2023/11/22 06:06:44;;;;;;;8.50;3.55;;;-0.70;99.90;;;;;;5025443;28;20067;-60
2023/11/22 06:09:14;;;;;;;8.38;3.58;;;-0.80;99.90;;;;;;5024246;28;20072;-60
2023/11/22 06:11:40;;;;;;;5.38;3.10;;;-0.80;99.90;;;;;;5019459;28;20123;-59
2023/11/22 06:14:05;;;;;;;5.68;2.90;;;-0.80;99.90;;;;;;5021968;28;20060;-61
2023/11/22 06:16:31;;;;;;;7.90;3.45;;;-0.80;99.90;;;;;;5021115;28;20053;-58
2023/11/22 06:18:56;;;;;;;4.43;2.88;;;-0.80;99.90;;;;;;5017593;28;20037;-60
2023/11/22 06:21:26;;;;;;;7.65;3.67;;;-0.80;99.90;;;;;;5020030;28;20049;-60
2023/11/22 06:23:55;;;;;;;5.32;2.78;;;-0.90;99.90;;;;;;5022635;28;20045;-62
2023/11/22 06:26:21;;;;;;;7.22;3.33;;;-0.90;99.90;;;;;;5024199;28;20038;-60
2023/11/22 06:28:49;;;;;;;7.65;3.08;;;-0.90;99.90;;;;;;5022113;28;20056;-61
2023/11/22 06:31:14;;;;;;;6.97;2.97;;;-1.00;99.90;;;;;;5021716;28;20044;-59
2023/11/22 06:33:40;;;;;;;6.78;2.55;;;-1.00;99.90;;;;;;5042253;28;20036;-58
2023/11/22 06:36:06;;;;;;;6.63;2.88;;;-1.00;99.90;;;;;;5042851;28;20047;-59
2023/11/22 06:38:31;;;;;;;13.25;2.88;;;-1.00;99.90;;;;;;5034262;28;20130;-63
2023/11/22 06:40:57;;;;;;;4.95;2.55;;;-1.00;99.90;;;;;;5036694;28;20037;-59
2023/11/22 06:43:22;;;;;;;5.60;2.60;;;-1.00;99.90;;;;;;5048220;28;20133;-61
2023/11/22 06:45:48;;;;;;;4.57;2.85;;;-1.00;99.90;;;;;;5044164;28;20068;-60
2023/11/22 06:48:14;;;;;;;10.93;2.75;;;-1.10;99.90;;;;;;5032585;28;20155;-60
2023/11/22 06:50:40;;;;;;;4.03;2.38;;;-1.10;99.90;;;;;;5044163;28;20044;-63
2023/11/22 06:53:06;;;;;;;8.55;2.80;;;-1.10;99.90;;;;;;5039120;28;20750;-59
2023/11/22 06:55:33;;;;;;;4.65;3.03;;;-1.20;99.90;;;;;;5044738;28;20049;-62
2023/11/22 06:57:59;;;;;;;7.50;3.35;;;-1.20;99.90;;;;;;5043043;28;20033;-65
2023/11/22 07:00:26;;;;;;;9.60;4.15;;;-1.30;99.90;;;;;;5042175;28;20190;-63
2023/11/22 07:02:52;;;;;;;9.07;3.83;;;-1.30;99.90;;;;;;5022293;28;20092;-61
2023/11/22 07:05:18;;;;;;;7.03;3.40;;;-1.20;99.90;;;;;;5019932;28;20045;-62
2023/11/22 07:07:44;;;;;;;10.32;3.80;;;-1.20;99.90;;;;;;5020758;28;20042;-61
2023/11/22 07:10:11;;;;;;;6.45;3.25;;;-1.20;99.90;;;;;;5024311;28;20038;-63
2023/11/22 07:12:37;;;;;;;8.80;3.33;;;-1.20;99.90;;;;;;5013715;28;20108;-62
2023/11/22 07:15:04;;;;;;;6.40;3.65;;;-1.20;99.90;;;;;;5023867;28;20050;-63
2023/11/22 07:17:30;;;;;;;14.30;3.60;;;-1.10;99.90;;;;;;5022386;28;20504;-63
2023/11/22 07:19:57;;;;;;;3.55;2.50;;;-1.10;99.90;;;;;;5024052;28;20033;-63
2023/11/22 07:22:23;;;;;;;5.78;2.78;;;-1.00;99.90;;;;;;5024410;28;20052;-63
2023/11/22 07:24:54;;;;;;;7.95;3.70;;;-1.00;99.90;;;;;;5021106;28;20125;-63
2023/11/22 07:27:20;;;;;;;7.20;3.15;;;-1.10;99.90;;;;;;5012604;28;20073;-62
2023/11/22 07:29:46;;;;;;;8.60;4.78;;;-1.20;99.90;;;;;;5026873;28;20065;-63
2023/11/22 07:32:12;;;;;;;9.23;4.40;;;-1.10;99.90;;;;;;5039282;28;20175;-63
2023/11/22 07:34:39;;;;;;;8.48;4.63;;;-1.10;99.90;;;;;;5043162;28;20815;-61
2023/11/22 07:37:09;;;;;;;7.63;3.30;;;-1.00;99.90;;;;;;5043730;28;20064;-63
2023/11/22 07:39:35;;;;;;;5.90;3.00;;;-0.90;99.90;;;;;;5045164;28;20076;-63
2023/11/22 07:42:02;;;;;;;5.53;2.95;;;-0.90;99.90;;;;;;5038536;28;20033;-62
2023/11/22 07:44:28;;;;;;;5.82;2.80;;;-0.80;99.90;;;;;;5046752;28;20043;-63
2023/11/22 07:46:53;;;;;;;5.57;2.95;;;-0.70;99.90;;;;;;5039373;28;20049;-63
2023/11/22 07:49:21;;;;;;;6.35;2.97;;;-0.70;99.90;;;;;;5042842;28;20037;-62
2023/11/22 07:51:46;;;;;;;6.30;3.35;;;-0.70;99.90;;;;;;5047147;28;20048;-61
2023/11/22 07:54:15;;;;;;;6.90;3.60;;;-0.60;99.90;;;;;;5043574;28;20033;-59
2023/11/22 07:56:43;;;;;;;6.68;3.55;;;-0.60;99.90;;;;;;5045138;28;20049;-63
2023/11/22 07:59:10;;;;;;;5.53;2.80;;;-0.60;99.90;;;;;;5043149;28;20048;-62
2023/11/22 08:01:36;;;;;;;4.57;2.65;;;-0.50;99.90;;;;;;5024348;28;20053;-63
2023/11/22 08:04:02;;;;;;;6.35;3.10;;;-0.40;99.90;;;;;;5022945;28;20037;-61
2023/11/22 08:06:28;;;;;;;5.82;3.25;;;-0.30;99.90;;;;;;5023423;28;20604;-62
2023/11/22 08:08:53;;;;;;;6.28;2.97;;;-0.20;99.90;;;;;;5025358;28;20041;-63
2023/11/22 08:11:19;;;;;;;9.20;3.63;;;-0.20;99.90;;;;;;5020509;28;20030;-61
2023/11/22 08:13:45;;;;;;;5.10;2.95;;;-0.20;99.90;;;;;;5022693;28;20041;-64
2023/11/22 08:16:14;;;;;;;10.68;3.33;;;-0.10;99.90;;;;;;5021000;28;20067;-63
2023/11/22 08:18:42;;;;;;;6.20;3.30;;;-0.10;99.90;;;;;;5026967;28;20057;-64
2023/11/22 08:21:08;;;;;;;7.13;3.10;;;0.00;99.90;;;;;;5023607;28;20053;-62
2023/11/22 08:23:34;;;;;;;5.00;3.17;;;0.00;99.90;;;;;;5022833;28;20542;-63
2023/11/22 08:26:00;;;;;;;4.78;2.95;;;0.00;99.90;;;;;;5019985;28;20073;-61
2023/11/22 08:28:26;;;;;;;8.85;3.20;;;0.10;99.90;;;;;;5021953;28;20128;-62
2023/11/22 08:30:52;;;;;;;7.55;3.03;;;0.10;99.90;;;;;;5025129;28;20449;-63
2023/11/22 08:33:17;;;;;;;7.90;3.13;;;0.20;99.90;;;;;;5045497;28;20041;-63
2023/11/22 08:35:43;;;;;;;6.63;3.45;;;0.20;99.90;;;;;;5040908;28;20626;-63
2023/11/22 08:38:09;;;;;;;8.10;2.92;;;0.20;99.90;;;;;;5043738;28;20033;-63
2023/11/22 08:40:37;;;;;;;5.88;2.65;;;0.30;99.90;;;;;;5037398;28;20548;-62
2023/11/22 08:43:05;;;;;;;8.65;2.92;;;0.40;99.90;;;;;;5038394;28;20382;-62
2023/11/22 08:45:31;;;;;;;4.00;2.63;;;0.40;99.90;;;;;;5041659;28;20055;-63
2023/11/22 08:47:57;;;;;;;8.30;3.28;;;0.50;99.90;;;;;;5041290;28;20405;-62
2023/11/22 08:50:23;;;;;;;7.35;3.20;;;0.60;99.90;;;;;;5046930;28;20060;-62
2023/11/22 08:52:52;;;;;;;6.10;3.03;;;0.80;99.90;;;;;;5044060;28;20496;-63
2023/11/22 08:55:21;;;;;;;3.45;2.38;;;0.90;99.90;;;;;;5043632;28;20037;-63
2023/11/22 08:57:48;;;;;;;5.28;2.72;;;0.90;99.90;;;;;;5039120;28;20624;-62
2023/11/22 09:00:14;;;;;;;6.97;3.03;;;1.10;99.90;;;;;;5039475;28;20038;-63
2023/11/22 09:02:40;;;;;;;4.57;2.67;;;1.10;99.90;;;;;;5041922;28;20045;-62
2023/11/22 09:05:09;;;;;;;4.50;3.08;;;1.10;99.90;;;;;;5041533;28;20033;-64
2023/11/22 09:07:35;;;;;;;5.20;2.42;;;1.10;99.90;;;;;;5042269;28;20471;-63
2023/11/22 09:10:09;;;;;;;6.88;3.38;;;1.10;99.90;;;;;;5045680;28;20599;-63
2023/11/22 09:12:37;;;;;;;3.35;1.83;;;1.10;99.90;;;;;;5045029;28;20045;-62
2023/11/22 09:15:04;;;;;;;3.85;2.50;;;1.10;99.90;;;;;;5041779;28;20033;-60
2023/11/22 09:17:30;;;;;;;5.10;2.53;;;1.10;99.90;;;;;;5039220;28;20041;-65
2023/11/22 09:19:58;;;;;;;10.27;2.70;;;1.20;99.90;;;;;;5042953;28;20041;-59
2023/11/22 09:22:26;;;;;;;7.13;2.88;;;1.10;99.90;;;;;;5043367;28;20631;-62
2023/11/22 09:24:52;;;;;;;5.70;2.83;;;1.10;99.90;;;;;;5043095;28;20516;-63
2023/11/22 09:27:18;;;;;;;9.30;2.85;;;1.00;99.90;;;;;;5040294;28;20051;-63
2023/11/22 09:29:48;;;;;;;7.63;2.45;;;1.00;99.90;;;;;;5044035;28;20048;-61
2023/11/22 09:32:14;;;;;;;3.80;2.22;;;1.10;99.90;;;;;;5038551;28;20048;-61
2023/11/22 09:34:39;;;;;;;4.18;2.17;;;1.20;99.90;;;;;;5044841;28;20051;-61
2023/11/22 09:37:05;;;;;;;3.20;2.13;;;1.30;99.90;;;;;;5041569;28;20139;-63
2023/11/22 09:39:30;;;;;;;7.53;2.47;;;1.40;99.90;;;;;;5045491;28;20051;-60
2023/11/22 09:41:56;;;;;;;4.57;2.05;;;1.40;99.90;;;;;;5045509;28;20033;-62
2023/11/22 09:44:22;;;;;;;4.90;1.90;;;1.50;99.90;;;;;;5040364;28;20057;-64
2023/11/22 09:46:48;;;;;;;3.17;1.98;;;1.60;99.90;;;;;;5045643;28;20041;-64
2023/11/22 09:49:22;;;;;;;3.88;1.90;;;1.70;99.90;;;;;;5038309;28;20047;-61
2023/11/22 09:51:51;;;;;;;3.65;2.10;;;1.80;99.90;;;;;;5044040;28;20724;-62
2023/11/22 09:54:19;;;;;;;5.47;2.38;;;1.90;99.90;;;;;;5042553;28;20044;-62
2023/11/22 09:56:50;;;;;;;3.42;2.08;;;1.80;99.90;;;;;;5037864;28;20048;-62
2023/11/22 09:59:19;;;;;;;5.47;2.25;;;1.70;99.90;;;;;;5035048;28;20555;-61
2023/11/22 10:01:44;;;;;;;3.95;2.28;;;1.70;99.90;;;;;;5022120;28;20055;-62
2023/11/22 10:04:11;;;;;;;5.53;2.25;;;1.70;99.90;;;;;;5035765;28;20048;-62
2023/11/22 10:06:38;;;;;;;11.73;2.22;;;1.60;99.90;;;;;;5037477;28;20187;-62
2023/11/22 10:09:07;;;;;;;3.90;2.50;;;1.60;99.90;;;;;;5039661;28;20103;-60
2023/11/22 10:11:36;;;;;;;5.25;2.15;;;1.60;99.90;;;;;;5040588;28;20126;-62
2023/11/22 10:14:02;;;;;;;13.95;2.28;;;1.70;99.90;;;;;;5040116;28;20041;-62
2023/11/22 10:16:58;;;;;;;4.32;1.80;;;1.70;99.90;;;;;;5033052;28;20550;-61
2023/11/22 10:19:43;;;;;;;3.35;2.13;;;1.90;99.90;;;;;;5027740;28;20052;-61
2023/11/22 10:22:29;;;;;;;3.55;1.73;;;1.90;99.90;;;;;;5027154;28;20041;-61
2023/11/22 10:25:00;;;;;;;3.90;1.85;;;1.90;99.90;;;;;;5031281;28;20027;-62
2023/11/22 10:27:26;;;;;;;3.75;2.03;;;1.80;99.90;;;;;;5033437;28;20049;-61
2023/11/22 10:29:52;;;;;;;3.67;2.13;;;1.70;99.90;;;;;;5033886;28;20039;-61
2023/11/22 10:32:18;;;;;;;5.70;2.13;;;1.60;99.90;;;;;;5039794;28;20754;-59
2023/11/22 10:34:44;;;;;;;7.32;2.20;;;1.60;99.90;;;;;;5043356;28;20037;-60
2023/11/22 10:37:10;;;;;;;2.72;1.92;;;1.70;99.90;;;;;;5040629;28;20051;-62
2023/11/22 10:39:39;;;;;;;3.30;1.80;;;1.80;99.90;;;;;;5040126;28;20064;-62
2023/11/22 10:42:11;;;;;;;5.03;1.85;;;1.90;99.90;;;;;;5037475;28;20082;-64
2023/11/22 10:44:38;;;;;;;3.20;1.83;;;2.00;99.90;;;;;;5038649;28;20048;-62
2023/11/22 10:47:05;;;;;;;3.40;2.08;;;2.00;99.90;;;;;;5030607;28;20497;-60
2023/11/22 10:49:31;;;;;;;4.63;1.98;;;2.20;99.90;;;;;;5035340;28;20036;-61
2023/11/22 10:51:57;;;;;;;3.60;1.83;;;2.10;99.90;;;;;;5038006;28;20053;-62
2023/11/22 10:54:24;;;;;;;4.57;3.17;;;2.00;99.90;;;;;;5032913;28;20543;-60
2023/11/22 10:56:57;;;;;;;3.50;2.05;;;2.10;99.90;;;;;;5032454;28;20833;-60
2023/11/22 10:59:31;;;;;;;4.90;2.20;;;2.10;99.90;;;;;;5035312;28;20132;-62
2023/11/22 11:02:03;;;;;;;5.90;2.25;;;2.10;99.90;;;;;;5038272;28;20041;-61
2023/11/22 11:04:35;;;;;;;4.28;1.95;;;2.10;99.90;;;;;;5035166;28;20049;-62
2023/11/22 11:07:03;;;;;;;4.82;2.38;;;2.10;99.90;;;;;;5037303;28;20412;-62
2023/11/22 11:09:32;;;;;;;4.03;2.35;;;2.10;99.90;;;;;;5034337;28;20037;-61
2023/11/22 11:11:59;;;;;;;5.38;2.35;;;2.30;99.90;;;;;;5038955;28;20504;-63
2023/11/22 11:14:27;;;;;;;3.63;2.30;;;2.30;99.90;;;;;;5036824;28;20095;-62
2023/11/22 11:16:54;;;;;;;5.13;2.60;;;2.50;99.90;;;;;;5034583;28;20493;-62
2023/11/22 11:19:22;;;;;;;5.28;2.08;;;2.60;99.90;;;;;;5034155;28;20043;-60
2023/11/22 11:21:48;;;;;;;4.10;2.08;;;2.50;99.90;;;;;;5036366;28;20041;-60
2023/11/22 11:24:14;;;;;;;6.65;2.55;;;2.40;99.90;;;;;;5036009;28;20037;-60
2023/11/22 11:26:40;;;;;;;3.72;2.45;;;2.40;99.90;;;;;;5038314;28;20049;-61
2023/11/22 11:29:07;;;;;;;3.03;1.90;;;2.40;99.90;;;;;;5040934;28;20036;-61
2023/11/22 11:31:39;;;;;;;4.93;2.22;;;2.50;99.90;;;;;;5039995;28;20033;-60
2023/11/22 11:34:08;;;;;;;4.25;2.05;;;2.60;99.90;;;;;;5039008;28;20120;-59
2023/11/22 11:36:37;;;;;;;3.50;1.90;;;2.60;99.90;;;;;;5043471;28;20049;-61
2023/11/22 11:39:09;;;;;;;3.22;1.95;;;2.50;99.90;;;;;;5037553;28;20565;-60
2023/11/22 11:41:39;;;;;;;3.10;1.95;;;2.60;99.90;;;;;;5039088;28;20061;-62
2023/11/22 11:44:09;;;;;;;2.75;1.90;;;2.60;99.90;;;;;;5034648;28;20547;-61
2023/11/22 11:46:36;;;;;;;3.28;2.05;;;2.70;99.90;;;;;;5036441;28;20037;-63
2023/11/22 11:49:07;;;;;;;2.97;1.77;;;2.70;99.90;;;;;;5034433;28;20120;-62
2023/11/22 11:51:38;;;;;;;3.33;1.80;;;2.60;99.90;;;;;;5035808;28;20045;-60
2023/11/22 11:54:05;;;;;;;2.95;1.90;;;2.60;99.90;;;;;;5033321;28;20055;-60
2023/11/22 11:56:32;;;;;;;3.30;2.03;;;2.60;99.90;;;;;;5037017;28;20072;-62
2023/11/22 11:58:59;;;;;;;3.42;1.75;;;2.70;99.90;;;;;;5033903;28;20044;-62
2023/11/22 12:01:27;;;;;;;5.47;1.88;;;2.70;99.90;;;;;;5033121;28;20117;-59
2023/11/22 12:03:53;;;;;;;3.17;1.90;;;2.70;99.90;;;;;;5039111;28;20041;-60
2023/11/22 12:06:22;;;;;;;4.32;2.45;;;2.70;99.90;;;;;;5033845;28;20140;-63
2023/11/22 12:08:47;;;;;;;4.05;1.52;;;2.70;99.90;;;;;;5041951;28;20554;-62
2023/11/22 12:11:16;;;;;;;4.35;1.80;;;2.70;99.90;;;;;;5030343;28;20052;-62
2023/11/22 12:13:46;;;;;;;2.55;1.70;;;2.70;99.90;;;;;;5034272;28;20526;-66
2023/11/22 12:16:18;;;;;;;3.65;2.00;;;2.70;99.90;;;;;;5041743;28;20045;-65
2023/11/22 12:18:47;;;;;;;4.30;2.17;;;2.80;99.90;;;;;;5038203;28;20041;-62
2023/11/22 12:21:13;;;;;;;3.83;1.85;;;2.90;99.90;;;;;;5045137;28;20045;-63
2023/11/22 12:23:40;;;;;;;4.63;2.63;;;2.90;99.90;;;;;;5040532;28;20044;-65
2023/11/22 12:26:11;;;;;;;6.38;2.13;;;2.90;99.90;;;;;;5044231;28;20362;-63
2023/11/22 12:28:40;;;;;;;4.85;2.42;;;3.00;99.90;;;;;;5042168;28;20579;-62
2023/11/22 12:31:14;;;;;;;3.47;1.98;;;3.00;99.90;;;;;;5047018;28;20068;-62
2023/11/22 12:33:41;;;;;;;4.32;2.10;;;2.90;99.90;;;;;;5044443;28;20048;-61
2023/11/22 12:36:09;;;;;;;2.08;1.52;;;3.00;99.90;;;;;;5044946;28;20175;-61
2023/11/22 12:38:36;;;;;;;3.72;2.22;;;2.90;99.90;;;;;;5044480;28;20037;-62
2023/11/22 12:41:06;;;;;;;3.85;2.17;;;2.90;99.90;;;;;;5046453;28;20055;-62
2023/11/22 12:43:33;;;;;;;4.90;2.13;;;2.90;99.90;;;;;;5039195;28;20048;-60
2023/11/22 12:46:10;;;;;;;5.43;2.03;;;2.90;99.90;;;;;;5040619;28;20045;-60
2023/11/22 12:48:37;;;;;;;4.85;2.00;;;2.90;99.90;;;;;;5043006;28;20059;-63
2023/11/22 12:51:14;;;;;;;3.60;2.13;;;2.90;99.90;;;;;;5047192;28;20029;-63